createdAt,value
2019-05-20T00:01:34.069Z,19.53
2019-05-20T00:04:11.352Z,21.03
2019-05-20T00:06:48.498Z,21.37
2019-05-20T00:09:25.678Z,19.10
2019-05-20T00:12:03.094Z,23.60
2019-05-20T00:14:40.138Z,20.97
2019-05-20T00:17:17.292Z,21.30
2019-05-20T00:19:56.173Z,18.27
2019-05-20T00:22:33.672Z,18.57
2019-05-20T00:25:10.759Z,16.40
2019-05-20T00:27:47.909Z,17.07
2019-05-20T00:30:25.220Z,20.37
2019-05-20T00:33:05.923Z,18.97
2019-05-20T00:35:53.398Z,20.43
2019-05-20T00:38:32.005Z,19.20
2019-05-20T00:41:09.015Z,21.33
2019-05-20T00:43:46.175Z,21.60
2019-05-20T00:46:23.270Z,19.27
2019-05-20T00:49:00.593Z,17.80
2019-05-20T00:51:37.734Z,15.70
2019-05-20T00:54:17.300Z,15.57
2019-05-20T00:56:54.649Z,16.10
2019-05-20T00:59:31.897Z,14.90
2019-05-20T01:02:09.019Z,14.67
2019-05-20T01:04:46.185Z,14.73
2019-05-20T01:07:23.266Z,15.00
2019-05-20T01:10:00.409Z,14.53
2019-05-20T01:12:37.445Z,15.13
2019-05-20T01:15:15.250Z,15.50
2019-05-20T01:17:52.477Z,16.80
2019-05-20T01:20:29.661Z,16.97
2019-05-20T01:23:06.776Z,15.80
2019-05-20T01:25:45.534Z,15.00
2019-05-20T01:28:22.688Z,14.67
2019-05-20T01:30:59.820Z,15.23
2019-05-20T01:33:37.034Z,15.53
2019-05-20T01:36:14.178Z,14.37
2019-05-20T01:38:51.319Z,15.93
2019-05-20T01:41:28.445Z,17.17
2019-05-20T01:44:05.654Z,18.77
2019-05-20T01:46:42.697Z,16.47
2019-05-20T01:49:19.798Z,15.37
2019-05-20T01:51:56.944Z,17.87
2019-05-20T01:54:34.071Z,19.30
2019-05-20T01:57:11.199Z,17.97
2019-05-20T01:59:48.335Z,18.13
2019-05-20T02:02:25.498Z,19.80
2019-05-20T02:05:02.694Z,18.67
2019-05-20T02:07:39.732Z,19.00
2019-05-20T02:10:17.522Z,17.83
2019-05-20T02:12:54.743Z,17.77
2019-05-20T02:15:36.442Z,17.67
2019-05-20T02:18:13.542Z,18.63
2019-05-20T02:20:50.689Z,17.03
2019-05-20T02:23:27.853Z,17.03
2019-05-20T02:26:04.964Z,16.43
2019-05-20T02:28:42.075Z,14.20
2019-05-20T02:31:19.175Z,13.27
2019-05-20T02:33:56.326Z,13.10
2019-05-20T02:36:33.399Z,12.67
2019-05-20T02:39:10.661Z,13.40
2019-05-20T02:41:48.469Z,13.90
2019-05-20T02:44:25.620Z,13.80
2019-05-20T02:47:02.713Z,13.67
2019-05-20T02:49:39.859Z,14.53
2019-05-20T02:52:16.989Z,12.80
2019-05-20T02:54:54.140Z,13.33
2019-05-20T02:57:31.261Z,12.80
2019-05-20T03:00:08.416Z,14.80
2019-05-20T03:02:45.556Z,14.77
2019-05-20T03:05:22.697Z,13.67
2019-05-20T03:07:59.814Z,15.20
2019-05-20T03:10:36.946Z,15.87
2019-05-20T03:13:14.059Z,17.07
2019-05-20T03:15:51.218Z,17.30
2019-05-20T03:18:31.034Z,15.83
2019-05-20T03:21:08.194Z,15.60
2019-05-20T03:23:45.281Z,14.40
2019-05-20T03:26:22.439Z,16.10
2019-05-20T03:28:59.534Z,20.03
2019-05-20T03:31:36.664Z,20.47
2019-05-20T03:34:42.078Z,20.60
2019-05-20T03:36:52.531Z,22.47
2019-05-20T03:39:31.136Z,23.67
2019-05-20T03:42:09.936Z,21.30
2019-05-20T03:44:47.039Z,19.23
2019-05-20T03:47:24.262Z,18.90
2019-05-20T03:50:01.366Z,18.47
2019-05-20T03:52:38.549Z,17.37
2019-05-20T03:55:15.746Z,17.77
2019-05-20T03:57:52.873Z,21.60
2019-05-20T04:00:42.308Z,22.50
2019-05-20T04:03:19.451Z,21.90
2019-05-20T04:05:56.697Z,23.83
2019-05-20T04:08:33.935Z,21.77
2019-05-20T04:11:11.088Z,18.10
2019-05-20T04:13:48.323Z,19.13
2019-05-20T04:16:25.500Z,18.30
2019-05-20T04:19:02.726Z,17.17
2019-05-20T04:21:40.049Z,16.37
2019-05-20T04:24:17.226Z,17.50
2019-05-20T04:27:00.463Z,17.67
2019-05-20T04:29:37.870Z,18.03
2019-05-20T04:32:14.972Z,18.07
2019-05-20T04:34:52.296Z,18.13
2019-05-20T04:37:29.594Z,16.00
2019-05-20T04:40:06.779Z,16.40
2019-05-20T04:42:43.865Z,16.57
2019-05-20T04:45:21.069Z,16.47
2019-05-20T04:47:59.228Z,16.27
2019-05-20T04:50:36.456Z,18.77
2019-05-20T04:53:13.627Z,19.33
2019-05-20T04:55:50.792Z,17.83
2019-05-20T04:58:28.366Z,19.37
2019-05-20T05:01:05.983Z,19.73
2019-05-20T05:03:43.176Z,20.10
2019-05-20T05:06:21.964Z,20.07
2019-05-20T05:08:59.079Z,19.43
2019-05-20T05:11:36.290Z,19.60
2019-05-20T05:14:13.496Z,19.67
2019-05-20T05:16:50.658Z,19.10
2019-05-20T05:19:27.746Z,19.03
2019-05-20T05:22:04.937Z,18.47
2019-05-20T05:24:42.046Z,20.10
2019-05-20T05:27:19.202Z,18.23
2019-05-20T05:29:56.426Z,18.73
2019-05-20T05:32:43.424Z,18.30
2019-05-20T05:35:23.245Z,17.07
2019-05-20T05:38:30.127Z,16.90
2019-05-20T05:41:02.551Z,16.77
2019-05-20T05:43:39.678Z,16.07
2019-05-20T05:46:17.362Z,17.37
2019-05-20T05:48:54.535Z,16.30
2019-05-20T05:51:32.333Z,16.40
2019-05-20T05:54:09.542Z,17.47
2019-05-20T05:56:46.720Z,17.97
2019-05-20T05:59:23.917Z,19.13
2019-05-20T06:02:01.154Z,20.37
2019-05-20T06:04:50.199Z,21.03
2019-05-20T06:07:27.345Z,18.93
2019-05-20T06:10:06.268Z,20.43
2019-05-20T06:12:43.601Z,21.90
2019-05-20T06:15:20.717Z,20.67
2019-05-20T06:17:57.850Z,21.63
2019-05-20T06:20:35.140Z,20.50
2019-05-20T06:23:12.272Z,21.30
2019-05-20T06:25:49.567Z,21.43
2019-05-20T06:28:26.878Z,19.90
2019-05-20T06:31:03.998Z,19.83
2019-05-20T06:33:42.802Z,19.80
2019-05-20T06:36:26.928Z,21.67
2019-05-20T06:39:06.389Z,19.47
2019-05-20T06:41:43.546Z,21.37
2019-05-20T06:44:20.665Z,19.23
2019-05-20T06:46:57.801Z,20.17
2019-05-20T06:49:35.489Z,20.07
2019-05-20T06:52:12.709Z,18.67
2019-05-20T06:54:49.853Z,20.03
2019-05-20T06:57:26.978Z,21.50
2019-05-20T07:00:07.302Z,17.83
2019-05-20T07:02:44.634Z,20.57
2019-05-20T07:05:23.678Z,19.67
2019-05-20T07:08:01.372Z,18.47
2019-05-20T07:10:38.839Z,19.40
2019-05-20T07:13:16.445Z,19.63
2019-05-20T07:15:55.035Z,20.13
2019-05-20T07:18:32.325Z,19.63
2019-05-20T07:21:09.715Z,20.57
2019-05-20T07:23:46.897Z,18.67
2019-05-20T07:26:24.013Z,19.37
2019-05-20T07:29:01.144Z,22.27
2019-05-20T07:31:38.332Z,18.03
2019-05-20T07:34:16.627Z,20.70
2019-05-20T07:37:03.155Z,21.03
2019-05-20T07:39:32.677Z,20.13
2019-05-20T07:42:09.819Z,21.37
2019-05-20T07:44:46.968Z,20.00
2019-05-20T07:47:25.258Z,20.60
2019-05-20T07:50:02.862Z,21.10
2019-05-20T07:52:40.494Z,20.55
2019-05-20T07:55:18.234Z,20.27
2019-05-20T07:57:55.906Z,19.73
2019-05-20T08:00:33.339Z,18.85
2019-05-20T08:03:10.488Z,19.32
2019-05-20T08:05:48.236Z,21.02
2019-05-20T08:08:25.440Z,19.30
2019-05-20T08:11:03.194Z,21.87
2019-05-20T08:13:40.313Z,25.40
2019-05-20T08:16:17.421Z,21.10
2019-05-20T08:18:54.571Z,21.65
2019-05-20T08:21:32.315Z,22.30
2019-05-20T08:24:09.445Z,20.48
2019-05-20T08:26:46.648Z,20.12
2019-05-20T08:29:23.731Z,21.75
2019-05-20T08:32:01.605Z,23.20
2019-05-20T08:34:40.245Z,23.42
2019-05-20T08:37:17.694Z,25.32
2019-05-20T08:39:54.802Z,26.80
2019-05-20T08:42:31.915Z,28.07
2019-05-20T08:45:09.618Z,28.65
2019-05-20T08:47:47.289Z,26.10
2019-05-20T08:50:24.395Z,25.92
2019-05-20T08:53:01.442Z,25.48
2019-05-20T08:55:39.284Z,28.45
2019-05-20T08:58:17.005Z,28.55
2019-05-20T09:00:54.723Z,24.23
2019-05-20T09:03:31.866Z,25.17
2019-05-20T09:06:09.008Z,23.80
2019-05-20T09:08:46.234Z,24.25
2019-05-20T09:11:23.980Z,22.70
2019-05-20T09:14:01.318Z,22.55
2019-05-20T09:19:15.619Z,21.70
2019-05-20T09:21:53.489Z,22.50
2019-05-20T09:24:30.701Z,22.80
2019-05-20T09:27:08.018Z,24.52
2019-05-20T09:29:45.790Z,23.92
2019-05-20T09:32:25.080Z,21.15
2019-05-20T09:35:02.370Z,21.55
2019-05-20T09:37:40.721Z,24.72
2019-05-20T09:40:35.715Z,22.42
2019-05-20T09:43:13.069Z,23.40
2019-05-20T09:46:05.768Z,22.15
2019-05-20T09:48:29.278Z,22.35
2019-05-20T09:51:06.494Z,20.40
2019-05-20T09:53:43.689Z,21.17
2019-05-20T09:56:21.402Z,21.33
2019-05-20T09:58:58.554Z,21.07
2019-05-20T10:01:39.598Z,21.50
2019-05-20T10:04:14.339Z,20.52
2019-05-20T10:06:51.564Z,23.03
2019-05-20T10:09:29.387Z,24.45
2019-05-20T10:12:06.458Z,23.45
2019-05-20T10:14:44.078Z,24.45
2019-05-20T10:17:21.835Z,24.75
2019-05-20T10:19:59.434Z,25.05
2019-05-20T10:22:37.221Z,25.82
2019-05-20T10:25:15.562Z,25.75
2019-05-20T10:27:57.185Z,27.67
2019-05-20T10:30:32.638Z,26.97
2019-05-20T10:33:10.903Z,28.25
2019-05-20T10:35:48.824Z,27.07
2019-05-20T10:38:26.703Z,28.25
2019-05-20T10:41:04.491Z,29.63
2019-05-20T10:43:42.242Z,30.05
2019-05-20T10:46:28.391Z,30.08
2019-05-20T10:49:06.152Z,28.38
2019-05-20T10:51:44.147Z,27.98
2019-05-20T10:54:21.796Z,25.72
2019-05-20T10:56:59.952Z,26.62
2019-05-20T10:59:37.866Z,27.25
2019-05-20T11:02:15.787Z,22.58
2019-05-20T11:04:53.568Z,22.65
2019-05-20T11:07:31.807Z,19.55
2019-05-20T11:10:11.963Z,20.05
2019-05-20T11:12:49.730Z,21.05
2019-05-20T11:15:27.441Z,20.60
2019-05-20T11:18:06.777Z,20.20
2019-05-20T11:20:44.463Z,21.20
2019-05-20T11:23:22.278Z,19.65
2019-05-20T11:26:00.035Z,17.73
2019-05-20T11:28:38.460Z,13.93
2019-05-20T11:31:20.857Z,10.93
2019-05-20T11:33:59.216Z,9.28
2019-05-20T11:36:37.183Z,7.70
2019-05-20T11:39:31.558Z,10.30
2019-05-20T11:41:55.821Z,13.65
2019-05-20T11:44:33.469Z,10.85
2019-05-20T11:47:12.817Z,8.08
2019-05-20T11:49:50.547Z,6.67
2019-05-20T11:52:28.306Z,5.87
2019-05-20T11:55:06.692Z,5.15
2019-05-20T11:57:44.402Z,3.67
2019-05-20T12:00:22.127Z,2.90
2019-05-20T12:03:02.087Z,3.12
2019-05-20T12:05:43.978Z,3.05
2019-05-20T12:08:21.678Z,3.00
2019-05-20T12:10:59.338Z,2.60
2019-05-20T12:13:37.098Z,2.80
2019-05-20T12:16:14.735Z,2.92
2019-05-20T12:18:52.538Z,2.65
2019-05-20T12:21:30.367Z,2.77
2019-05-20T12:24:08.105Z,2.80
2019-05-20T12:26:46.390Z,2.67
2019-05-20T12:29:24.030Z,2.47
2019-05-20T12:32:03.571Z,2.80
2019-05-20T12:34:40.943Z,1.90
2019-05-20T12:37:18.641Z,1.80
2019-05-20T12:40:06.343Z,2.17
2019-05-20T12:42:35.597Z,1.90
2019-05-20T12:45:14.276Z,1.95
2019-05-20T12:47:51.818Z,1.52
2019-05-20T12:50:29.546Z,1.82
2019-05-20T12:53:07.250Z,2.30
2019-05-20T12:55:44.962Z,2.05
2019-05-20T12:58:22.644Z,1.57
2019-05-20T13:01:00.338Z,1.70
2019-05-20T13:03:38.044Z,2.00
2019-05-20T13:06:15.747Z,2.00
2019-05-20T13:09:12.558Z,2.20
2019-05-20T13:11:50.188Z,2.10
2019-05-20T13:14:29.075Z,2.40
2019-05-20T13:17:06.724Z,2.30
2019-05-20T13:19:44.437Z,2.30
2019-05-20T13:22:22.102Z,2.10
2019-05-20T13:24:59.849Z,2.00
2019-05-20T13:27:42.007Z,2.35
2019-05-20T13:30:20.846Z,2.40
2019-05-20T13:32:58.638Z,2.08
2019-05-20T13:35:36.415Z,2.15
2019-05-20T13:38:14.157Z,2.02
2019-05-20T13:40:53.567Z,2.40
2019-05-20T13:43:34.276Z,2.10
2019-05-20T13:46:16.020Z,2.20
2019-05-20T13:48:53.816Z,1.90
2019-05-20T13:51:31.585Z,2.25
2019-05-20T13:54:09.856Z,1.85
2019-05-20T13:56:47.578Z,2.33
2019-05-20T13:59:29.203Z,2.27
2019-05-20T14:02:08.120Z,2.00
2019-05-20T14:04:49.186Z,1.92
2019-05-20T14:07:28.059Z,1.90
2019-05-20T14:10:12.913Z,1.90
2019-05-20T14:12:50.887Z,2.00
2019-05-20T14:15:28.744Z,1.60
2019-05-20T14:18:06.472Z,2.00
2019-05-20T14:20:45.346Z,2.60
2019-05-20T14:23:23.095Z,1.95
2019-05-20T14:26:00.989Z,1.95
2019-05-20T14:28:38.868Z,1.80
2019-05-20T14:31:16.836Z,1.72
2019-05-20T14:33:54.788Z,1.80
2019-05-20T14:36:40.426Z,2.05
2019-05-20T14:39:18.642Z,2.08
2019-05-20T14:41:56.559Z,1.67
2019-05-20T14:44:34.424Z,1.80
2019-05-20T14:47:12.408Z,1.77
2019-05-20T14:49:51.902Z,1.77
2019-05-20T14:52:29.564Z,1.50
2019-05-20T14:55:07.858Z,1.47
2019-05-20T14:57:45.511Z,1.40
2019-05-20T15:00:24.607Z,1.62
2019-05-20T15:03:02.439Z,1.70
2019-05-20T15:05:40.403Z,1.70
2019-05-20T15:08:18.299Z,1.80
2019-05-20T15:10:56.022Z,1.70
2019-05-20T15:13:33.783Z,1.60
2019-05-20T15:16:11.463Z,1.90
2019-05-20T15:18:49.146Z,1.60
2019-05-20T15:21:29.566Z,1.82
2019-05-20T15:24:08.311Z,2.00
2019-05-20T15:26:49.140Z,1.90
2019-05-20T15:29:28.654Z,1.90
2019-05-20T15:32:08.303Z,2.05
2019-05-20T15:34:49.160Z,1.65
2019-05-20T15:37:27.561Z,1.70
2019-05-20T15:40:05.730Z,2.02
2019-05-20T15:42:43.446Z,1.50
2019-05-20T15:45:21.348Z,1.60
2019-05-20T15:48:05.091Z,1.77
2019-05-20T15:50:44.203Z,1.70
2019-05-20T15:53:22.157Z,1.98
2019-05-20T15:56:00.053Z,1.60
2019-05-20T15:58:37.864Z,1.72
2019-05-20T16:01:16.181Z,1.80
2019-05-20T16:03:53.949Z,1.70
2019-05-20T16:06:31.613Z,1.70
2019-05-20T16:09:09.633Z,1.77
2019-05-20T16:11:50.785Z,1.67
2019-05-20T16:14:29.095Z,1.85
2019-05-20T16:17:08.816Z,1.80
2019-05-20T16:19:46.472Z,2.02
2019-05-20T16:22:24.118Z,1.90
2019-05-20T16:25:03.647Z,1.80
2019-05-20T16:27:44.428Z,1.92
2019-05-20T16:30:22.326Z,1.77
2019-05-20T16:33:00.132Z,1.80
2019-05-20T16:35:38.078Z,2.08
2019-05-20T16:38:15.971Z,1.60
2019-05-20T16:40:54.937Z,1.85
2019-05-20T16:43:32.645Z,1.95
2019-05-20T16:46:11.493Z,2.17
2019-05-20T16:48:49.150Z,2.05
2019-05-20T16:51:26.832Z,1.85
2019-05-20T16:54:04.629Z,2.22
2019-05-20T16:56:42.295Z,2.15
2019-05-20T16:59:19.998Z,2.08
2019-05-20T17:01:57.618Z,2.08
2019-05-20T17:04:35.343Z,2.40
2019-05-20T17:07:13.142Z,2.27
2019-05-20T17:09:50.854Z,2.22
2019-05-20T17:12:28.617Z,2.00
2019-05-20T17:15:06.792Z,2.10
2019-05-20T17:17:44.525Z,2.30
2019-05-20T17:20:22.403Z,2.42
2019-05-20T17:23:00.085Z,2.55
2019-05-20T17:25:40.957Z,2.85
2019-05-20T17:28:19.499Z,2.62
2019-05-20T17:30:57.570Z,2.25
2019-05-20T17:33:35.307Z,2.70
2019-05-20T17:36:13.108Z,2.58
2019-05-20T17:38:51.072Z,3.02
2019-05-20T17:41:28.731Z,3.12
2019-05-20T17:44:06.502Z,3.00
2019-05-20T17:46:47.407Z,2.90
2019-05-20T17:49:25.273Z,2.83
2019-05-20T17:52:03.530Z,2.75
2019-05-20T17:54:41.282Z,3.00
2019-05-20T17:57:18.955Z,3.30
2019-05-20T17:59:56.695Z,2.90
2019-05-20T18:02:34.357Z,3.60
2019-05-20T18:05:14.791Z,3.20
2019-05-20T18:07:54.383Z,2.70
2019-05-20T18:10:32.102Z,2.95
2019-05-20T18:13:09.762Z,3.22
2019-05-20T18:15:47.528Z,2.92
2019-05-20T18:18:25.222Z,3.10
2019-05-20T18:21:02.951Z,2.90
2019-05-20T18:23:44.982Z,3.00
2019-05-20T18:26:22.689Z,2.95
2019-05-20T18:29:00.258Z,3.05
2019-05-20T18:31:37.993Z,2.70
2019-05-20T18:34:15.644Z,2.98
2019-05-20T18:36:53.697Z,3.45
2019-05-20T18:39:31.420Z,3.22
2019-05-20T18:42:09.108Z,3.75
2019-05-20T18:44:46.871Z,3.15
2019-05-20T18:47:24.980Z,3.33
2019-05-20T18:50:02.245Z,3.52
2019-05-20T18:52:39.923Z,3.55
2019-05-20T18:55:21.215Z,3.72
2019-05-20T18:57:58.903Z,3.55
2019-05-20T19:00:36.588Z,4.20
2019-05-20T19:03:13.819Z,4.05
2019-05-20T19:05:51.456Z,4.37
2019-05-20T19:08:29.350Z,3.87
2019-05-20T19:11:07.273Z,4.20
2019-05-20T19:13:45.252Z,4.10
2019-05-20T19:16:32.195Z,3.95
2019-05-20T19:19:09.349Z,4.30
2019-05-20T19:21:47.742Z,4.33
2019-05-20T19:24:27.811Z,4.87
2019-05-20T19:27:05.902Z,4.30
2019-05-20T19:29:44.730Z,4.17
2019-05-20T19:32:22.652Z,3.95
2019-05-20T19:35:09.659Z,4.10
2019-05-20T19:37:51.457Z,3.95
2019-05-20T19:40:29.607Z,3.85
2019-05-20T19:43:09.110Z,3.52
2019-05-20T19:45:51.687Z,4.17
2019-05-20T19:48:31.808Z,4.40
2019-05-20T19:51:09.107Z,4.17
2019-05-20T19:53:52.144Z,4.23
2019-05-20T19:56:29.283Z,4.60
2019-05-20T19:59:06.495Z,4.80
2019-05-20T20:01:43.928Z,4.90
2019-05-20T20:04:21.207Z,5.20
2019-05-20T20:06:58.524Z,5.83
2019-05-20T20:09:39.043Z,5.67
2019-05-20T20:12:16.328Z,5.37
2019-05-20T20:14:53.545Z,5.53
2019-05-20T20:17:30.715Z,5.13
2019-05-20T20:20:08.063Z,4.90
2019-05-20T20:22:45.494Z,5.03
2019-05-20T20:25:22.620Z,6.10
2019-05-20T20:27:59.767Z,5.30
2019-05-20T20:30:37.124Z,5.43
2019-05-20T20:33:14.330Z,5.67
2019-05-20T20:35:51.581Z,5.63
2019-05-20T20:38:28.907Z,5.23
2019-05-20T20:41:09.955Z,4.73
2019-05-20T20:43:47.198Z,4.80
2019-05-20T20:46:24.466Z,4.53
2019-05-20T20:49:01.726Z,4.97
2019-05-20T20:51:38.878Z,4.83
2019-05-20T20:54:16.077Z,4.43
2019-05-20T20:56:53.190Z,4.77
2019-05-20T20:59:30.351Z,4.80
2019-05-20T21:02:07.685Z,5.67
2019-05-20T21:04:45.194Z,4.57
2019-05-20T21:07:22.456Z,4.63
2019-05-20T21:09:59.730Z,5.27
2019-05-20T21:12:36.855Z,5.50
2019-05-20T21:15:14.038Z,4.97
2019-05-20T21:17:51.763Z,5.00
2019-05-20T21:20:29.288Z,5.00
2019-05-20T21:23:06.442Z,5.70
2019-05-20T21:25:43.562Z,5.13
2019-05-20T21:28:20.740Z,4.70
2019-05-20T21:30:57.973Z,4.80
2019-05-20T21:33:35.137Z,5.37
2019-05-20T21:36:12.244Z,5.23
2019-05-20T21:38:49.365Z,5.27
2019-05-20T21:41:26.575Z,5.27
2019-05-20T21:44:03.926Z,5.50
2019-05-20T21:46:41.018Z,5.67
2019-05-20T21:49:18.159Z,6.03
2019-05-20T21:51:55.466Z,6.53
2019-05-20T21:54:32.580Z,6.70
2019-05-20T21:57:09.698Z,6.80
2019-05-20T21:59:46.810Z,7.10
2019-05-20T22:02:26.585Z,6.97
2019-05-20T22:05:02.677Z,6.63
2019-05-20T22:07:39.857Z,7.27
2019-05-20T22:10:16.948Z,6.97
2019-05-20T22:12:54.095Z,6.70
2019-05-20T22:15:31.253Z,6.67
2019-05-20T22:18:08.374Z,6.97
2019-05-20T22:20:45.556Z,6.80
2019-05-20T22:23:24.318Z,7.10
2019-05-20T22:26:07.154Z,6.47
2019-05-20T22:28:44.417Z,7.00
2019-05-20T22:31:21.632Z,5.90
2019-05-20T22:33:58.764Z,6.27
2019-05-20T22:36:35.878Z,5.93
2019-05-20T22:39:13.069Z,6.20
2019-05-20T22:41:50.392Z,6.13
2019-05-20T22:44:27.630Z,6.87
2019-05-20T22:47:04.750Z,7.47
2019-05-20T22:49:41.890Z,6.97
2019-05-20T22:52:18.994Z,6.77
2019-05-20T22:54:56.126Z,7.17
2019-05-20T22:57:33.210Z,7.23
2019-05-20T23:00:10.730Z,7.00
2019-05-20T23:02:47.809Z,7.07
2019-05-20T23:05:24.985Z,6.33
2019-05-20T23:08:02.139Z,6.53
2019-05-20T23:10:39.283Z,6.50
2019-05-20T23:13:16.345Z,6.80
2019-05-20T23:15:55.681Z,6.73
2019-05-20T23:18:32.208Z,6.67
2019-05-20T23:21:12.415Z,6.63
2019-05-20T23:23:49.607Z,7.20
2019-05-20T23:26:26.758Z,7.50
2019-05-20T23:29:03.759Z,7.27
2019-05-20T23:31:40.902Z,7.67
2019-05-20T23:34:17.982Z,7.03
2019-05-20T23:36:55.126Z,10.23
2019-05-20T23:39:32.225Z,8.93
2019-05-20T23:42:09.750Z,9.07
2019-05-20T23:44:46.790Z,8.27
2019-05-20T23:47:23.959Z,8.87
2019-05-20T23:50:01.031Z,8.60
2019-05-20T23:52:38.186Z,7.03
2019-05-20T23:55:15.287Z,7.47
2019-05-20T23:57:52.469Z,7.77
